createdAt,value
2018-03-26T00:00:26.648Z,42.40
2018-03-26T00:00:58.397Z,42.30
2018-03-26T00:01:30.157Z,42.40
2018-03-26T00:02:01.926Z,42.40
2018-03-26T00:02:33.855Z,42.50
2018-03-26T00:03:05.577Z,42.30
2018-03-26T00:03:37.331Z,42.40
2018-03-26T00:04:09.075Z,42.30
2018-03-26T00:04:40.810Z,42.40
2018-03-26T00:05:12.553Z,42.20
2018-03-26T00:05:44.299Z,42.30
2018-03-26T00:06:16.101Z,42.40
2018-03-26T00:06:48.019Z,42.30
2018-03-26T00:07:19.732Z,42.40
2018-03-26T00:07:51.479Z,42.50
2018-03-26T00:08:23.220Z,42.30
2018-03-26T00:08:54.993Z,42.50
2018-03-26T00:09:26.734Z,42.40
2018-03-26T00:09:58.514Z,42.40
2018-03-26T00:10:31.014Z,42.50
2018-03-26T00:11:02.771Z,42.50
2018-03-26T00:11:34.518Z,42.60
2018-03-26T00:12:06.283Z,42.40
2018-03-26T00:12:38.026Z,42.40
2018-03-26T00:13:09.781Z,42.20
2018-03-26T00:13:42.285Z,42.40
2018-03-26T00:14:14.028Z,42.30
2018-03-26T00:14:45.775Z,42.40
2018-03-26T00:15:17.528Z,42.40
2018-03-26T00:15:49.265Z,42.40
2018-03-26T00:16:21.041Z,42.20
2018-03-26T00:16:52.786Z,42.10
2018-03-26T00:17:24.523Z,42.10
2018-03-26T00:17:56.273Z,42.20
2018-03-26T00:18:28.110Z,42.20
2018-03-26T00:18:59.862Z,42.30
2018-03-26T00:19:31.592Z,42.40
2018-03-26T00:20:03.336Z,42.30
2018-03-26T00:20:35.082Z,42.30
2018-03-26T00:21:06.824Z,42.30
2018-03-26T00:21:38.569Z,42.40
2018-03-26T00:22:10.323Z,42.20
2018-03-26T00:22:42.061Z,42.20
2018-03-26T00:23:13.804Z,42.00
2018-03-26T00:23:45.547Z,42.20
2018-03-26T00:24:17.300Z,42.00
2018-03-26T00:24:49.035Z,42.10
2018-03-26T00:25:20.778Z,42.20
2018-03-26T00:25:52.532Z,42.20
2018-03-26T00:26:24.277Z,42.10
2018-03-26T00:26:56.028Z,42.00
2018-03-26T00:27:27.765Z,42.10
2018-03-26T00:27:59.499Z,42.10
2018-03-26T00:28:31.250Z,42.00
2018-03-26T00:29:02.997Z,42.60
2018-03-26T00:29:34.771Z,41.90
2018-03-26T00:30:06.502Z,42.00
2018-03-26T00:30:38.243Z,42.00
2018-03-26T00:31:10.838Z,42.60
2018-03-26T00:31:42.594Z,42.10
2018-03-26T00:32:15.122Z,41.90
2018-03-26T00:32:46.852Z,42.00
2018-03-26T00:33:18.603Z,41.90
2018-03-26T00:33:50.351Z,42.00
2018-03-26T00:34:22.096Z,42.10
2018-03-26T00:34:53.849Z,42.00
2018-03-26T00:35:25.824Z,42.10
2018-03-26T00:35:58.318Z,41.70
2018-03-26T00:36:30.068Z,42.00
2018-03-26T00:37:01.861Z,42.10
2018-03-26T00:37:33.781Z,41.80
2018-03-26T00:38:05.527Z,42.10
2018-03-26T00:38:37.263Z,42.20
2018-03-26T00:39:09.021Z,42.00
2018-03-26T00:39:40.779Z,41.90
2018-03-26T00:40:12.511Z,42.20
2018-03-26T00:40:44.281Z,42.00
2018-03-26T00:41:16.800Z,42.10
2018-03-26T00:41:48.541Z,42.10
2018-03-26T00:42:20.297Z,42.10
2018-03-26T00:42:52.217Z,42.10
2018-03-26T00:43:24.011Z,42.30
2018-03-26T00:43:55.777Z,42.10
2018-03-26T00:44:27.719Z,42.20
2018-03-26T00:45:00.232Z,42.10
2018-03-26T00:45:31.991Z,42.00
2018-03-26T00:46:03.731Z,42.00
2018-03-26T00:46:35.472Z,42.00
2018-03-26T00:47:07.226Z,41.90
2018-03-26T00:47:38.987Z,42.20
2018-03-26T00:48:10.716Z,42.10
2018-03-26T00:48:42.458Z,42.00
2018-03-26T00:49:14.203Z,42.20
2018-03-26T00:49:45.956Z,42.20
2018-03-26T00:50:17.712Z,42.20
2018-03-26T00:50:49.634Z,42.20
2018-03-26T00:51:21.608Z,42.30
2018-03-26T00:51:53.570Z,42.30
2018-03-26T00:52:25.522Z,42.30
2018-03-26T00:52:57.417Z,42.20
2018-03-26T00:53:29.152Z,42.10
2018-03-26T00:54:00.900Z,42.10
2018-03-26T00:54:32.826Z,42.10
2018-03-26T00:55:04.584Z,42.00
2018-03-26T00:55:36.328Z,42.90
2018-03-26T00:56:08.071Z,42.20
2018-03-26T00:56:39.834Z,42.20
2018-03-26T00:57:11.572Z,42.60
2018-03-26T00:57:43.377Z,42.10
2018-03-26T00:58:15.892Z,42.00
2018-03-26T00:58:47.647Z,41.90
2018-03-26T00:59:19.408Z,42.20
2018-03-26T00:59:51.150Z,42.10
2018-03-26T01:00:22.887Z,42.00
2018-03-26T01:00:54.683Z,41.80
2018-03-26T01:01:26.423Z,41.90
2018-03-26T01:01:58.164Z,41.80
2018-03-26T01:02:29.896Z,42.00
2018-03-26T01:03:02.413Z,42.10
2018-03-26T01:03:34.192Z,42.00
2018-03-26T01:04:05.930Z,42.00
2018-03-26T01:04:37.666Z,42.10
2018-03-26T01:05:09.398Z,41.90
2018-03-26T01:05:41.148Z,42.10
2018-03-26T01:06:12.896Z,42.00
2018-03-26T01:06:44.637Z,42.10
2018-03-26T01:07:16.365Z,42.00
2018-03-26T01:07:48.122Z,41.80
2018-03-26T01:08:19.895Z,42.00
2018-03-26T01:08:51.621Z,41.90
2018-03-26T01:09:23.356Z,42.40
2018-03-26T01:09:55.103Z,41.90
2018-03-26T01:10:26.848Z,42.00
2018-03-26T01:10:58.604Z,41.70
2018-03-26T01:11:30.339Z,41.80
2018-03-26T01:12:02.875Z,41.90
2018-03-26T01:12:34.647Z,41.90
2018-03-26T01:13:06.400Z,42.00
2018-03-26T01:13:38.136Z,41.70
2018-03-26T01:14:09.895Z,41.70
2018-03-26T01:14:41.622Z,42.00
2018-03-26T01:15:13.346Z,42.00
2018-03-26T01:15:45.107Z,42.00
2018-03-26T01:16:16.838Z,42.00
2018-03-26T01:16:48.588Z,42.00
2018-03-26T01:17:20.631Z,41.90
2018-03-26T01:17:52.372Z,41.90
2018-03-26T01:18:24.127Z,41.90
2018-03-26T01:18:55.916Z,41.90
2018-03-26T01:19:27.646Z,41.80
2018-03-26T01:20:00.168Z,41.80
2018-03-26T01:20:31.924Z,41.80
2018-03-26T01:21:03.663Z,41.80
2018-03-26T01:21:35.411Z,42.00
2018-03-26T01:22:07.153Z,41.90
2018-03-26T01:22:38.903Z,41.90
2018-03-26T01:23:10.634Z,41.60
2018-03-26T01:23:42.380Z,41.80
2018-03-26T01:24:14.111Z,41.80
2018-03-26T01:24:45.898Z,41.70
2018-03-26T01:25:17.737Z,41.90
2018-03-26T01:25:49.652Z,41.60
2018-03-26T01:26:21.396Z,41.70
2018-03-26T01:26:53.137Z,41.90
2018-03-26T01:27:24.871Z,41.90
2018-03-26T01:27:56.614Z,41.90
2018-03-26T01:28:28.359Z,41.70
2018-03-26T01:29:00.092Z,41.80
2018-03-26T01:29:31.844Z,42.00
2018-03-26T01:30:03.586Z,42.00
2018-03-26T01:30:35.326Z,41.90
2018-03-26T01:31:07.257Z,41.70
2018-03-26T01:31:39.750Z,41.20
2018-03-26T01:32:11.497Z,41.60
2018-03-26T01:32:43.247Z,41.70
2018-03-26T01:33:14.990Z,41.80
2018-03-26T01:33:46.770Z,41.80
2018-03-26T01:34:18.530Z,41.90
2018-03-26T01:34:50.286Z,41.80
2018-03-26T01:35:22.211Z,41.80
2018-03-26T01:35:53.951Z,41.80
2018-03-26T01:36:25.687Z,41.80
2018-03-26T01:36:57.489Z,41.60
2018-03-26T01:37:29.990Z,41.50
2018-03-26T01:38:01.744Z,41.50
2018-03-26T01:38:33.686Z,41.80
2018-03-26T01:39:05.440Z,41.80
2018-03-26T01:39:37.181Z,41.70
2018-03-26T01:40:09.126Z,41.60
2018-03-26T01:40:40.862Z,41.70
2018-03-26T01:41:12.616Z,41.90
2018-03-26T01:41:44.352Z,41.60
2018-03-26T01:42:16.102Z,41.60
2018-03-26T01:42:48.038Z,41.60
2018-03-26T01:43:19.806Z,41.50
2018-03-26T01:43:51.531Z,41.50
2018-03-26T01:44:23.310Z,41.80
2018-03-26T01:44:55.234Z,41.50
2018-03-26T01:45:26.973Z,41.60
2018-03-26T01:45:58.704Z,41.70
2018-03-26T01:46:30.463Z,41.70
2018-03-26T01:47:02.228Z,41.50
2018-03-26T01:47:34.176Z,41.50
2018-03-26T01:48:05.929Z,41.30
2018-03-26T01:48:37.684Z,41.40
2018-03-26T01:49:10.185Z,41.80
2018-03-26T01:49:41.937Z,41.30
2018-03-26T01:50:13.688Z,41.60
2018-03-26T01:50:45.443Z,41.60
2018-03-26T01:51:17.330Z,41.50
2018-03-26T01:51:49.822Z,41.90
2018-03-26T01:52:21.679Z,41.70
2018-03-26T01:52:54.158Z,41.50
2018-03-26T01:53:25.911Z,41.50
2018-03-26T01:53:57.659Z,41.60
2018-03-26T01:54:29.400Z,41.50
2018-03-26T01:55:01.141Z,41.40
2018-03-26T01:55:32.922Z,41.70
2018-03-26T01:56:05.450Z,41.70
2018-03-26T01:56:37.195Z,41.50
2018-03-26T01:57:08.938Z,41.70
2018-03-26T01:57:40.971Z,41.70
2018-03-26T01:58:12.770Z,41.60
2018-03-26T01:58:44.512Z,41.60
2018-03-26T01:59:16.251Z,41.70
2018-03-26T01:59:47.980Z,41.50
2018-03-26T02:00:19.720Z,41.50
2018-03-26T02:00:51.467Z,42.20
2018-03-26T02:01:23.222Z,41.60
2018-03-26T02:01:54.955Z,41.60
2018-03-26T02:02:26.695Z,41.70
2018-03-26T02:02:58.440Z,41.60
2018-03-26T02:03:30.192Z,41.70
2018-03-26T02:04:01.950Z,41.50
2018-03-26T02:04:34.457Z,41.60
2018-03-26T02:05:06.223Z,41.60
2018-03-26T02:05:38.007Z,41.70
2018-03-26T02:06:09.747Z,41.70
2018-03-26T02:06:41.490Z,41.70
2018-03-26T02:07:13.216Z,41.50
2018-03-26T02:07:44.949Z,41.60
2018-03-26T02:08:16.697Z,41.40
2018-03-26T02:08:48.450Z,41.60
2018-03-26T02:09:20.192Z,41.50
2018-03-26T02:09:51.934Z,41.60
2018-03-26T02:10:23.680Z,41.50
2018-03-26T02:10:55.427Z,41.50
2018-03-26T02:11:27.161Z,41.50
2018-03-26T02:11:58.909Z,41.20
2018-03-26T02:12:30.668Z,41.40
2018-03-26T02:13:02.420Z,41.60
2018-03-26T02:13:34.165Z,41.60
2018-03-26T02:14:05.906Z,41.50
2018-03-26T02:14:37.647Z,41.40
2018-03-26T02:15:09.377Z,41.40
2018-03-26T02:15:41.119Z,41.50
2018-03-26T02:16:12.859Z,41.50
2018-03-26T02:16:44.608Z,41.30
2018-03-26T02:17:16.454Z,41.60
2018-03-26T02:17:48.226Z,41.60
2018-03-26T02:18:19.968Z,41.50
2018-03-26T02:18:51.739Z,41.40
2018-03-26T02:19:24.252Z,41.50
2018-03-26T02:19:56.004Z,41.50
2018-03-26T02:20:27.776Z,41.50
2018-03-26T02:20:59.516Z,41.40
2018-03-26T02:21:32.084Z,41.30
2018-03-26T02:22:04.599Z,41.40
2018-03-26T02:22:36.345Z,41.40
2018-03-26T02:23:08.107Z,41.40
2018-03-26T02:23:39.840Z,41.50
2018-03-26T02:24:11.599Z,41.50
2018-03-26T02:24:43.335Z,41.60
2018-03-26T02:25:15.109Z,41.40
2018-03-26T02:25:46.866Z,41.60
2018-03-26T02:26:19.371Z,41.60
2018-03-26T02:26:51.130Z,41.50
2018-03-26T02:27:22.903Z,41.40
2018-03-26T02:27:54.646Z,41.60
2018-03-26T02:28:26.383Z,41.40
2018-03-26T02:28:58.137Z,41.60
2018-03-26T02:29:29.872Z,41.40
2018-03-26T02:30:01.628Z,41.50
2018-03-26T02:30:33.363Z,41.50
2018-03-26T02:31:05.124Z,41.40
2018-03-26T02:31:37.627Z,41.40
2018-03-26T02:32:09.386Z,41.50
2018-03-26T02:32:41.335Z,41.40
2018-03-26T02:33:13.098Z,41.40
2018-03-26T02:33:44.835Z,41.30
2018-03-26T02:34:16.576Z,41.30
2018-03-26T02:34:48.315Z,41.40
2018-03-26T02:35:20.072Z,41.30
2018-03-26T02:35:52.014Z,41.20
2018-03-26T02:36:23.776Z,41.20
2018-03-26T02:36:55.537Z,41.30
2018-03-26T02:37:27.510Z,41.30
2018-03-26T02:38:00.000Z,41.60
2018-03-26T02:38:31.837Z,41.50
2018-03-26T02:39:04.342Z,41.30
2018-03-26T02:39:36.073Z,41.30
2018-03-26T02:40:07.828Z,41.40
2018-03-26T02:40:39.664Z,41.40
2018-03-26T02:41:11.416Z,41.50
2018-03-26T02:41:43.164Z,41.30
2018-03-26T02:42:14.931Z,41.40
2018-03-26T02:42:46.672Z,41.20
2018-03-26T02:43:18.419Z,41.30
2018-03-26T02:43:50.949Z,41.30
2018-03-26T02:44:22.688Z,41.20
2018-03-26T02:44:54.430Z,41.30
2018-03-26T02:45:26.255Z,41.20
2018-03-26T02:45:58.752Z,41.30
2018-03-26T02:46:30.522Z,41.20
2018-03-26T02:47:02.242Z,41.30
2018-03-26T02:47:34.027Z,41.30
2018-03-26T02:48:06.545Z,41.40
2018-03-26T02:48:38.492Z,41.40
2018-03-26T02:49:10.225Z,41.40
2018-03-26T02:49:41.976Z,41.40
2018-03-26T02:50:13.708Z,41.40
2018-03-26T02:50:45.541Z,41.30
2018-03-26T02:51:17.449Z,41.20
2018-03-26T02:51:49.387Z,41.10
2018-03-26T02:52:21.142Z,41.30
2018-03-26T02:52:53.064Z,41.40
2018-03-26T02:53:24.813Z,41.30
2018-03-26T02:53:56.573Z,41.30
2018-03-26T02:54:28.314Z,41.40
2018-03-26T02:55:00.245Z,41.20
2018-03-26T02:55:32.001Z,41.10
2018-03-26T02:56:03.925Z,41.10
2018-03-26T02:56:35.671Z,40.80
2018-03-26T02:57:07.622Z,41.10
2018-03-26T02:57:39.361Z,41.20
2018-03-26T02:58:11.109Z,41.40
2018-03-26T02:58:42.855Z,41.40
2018-03-26T02:59:14.595Z,41.50
2018-03-26T02:59:46.539Z,41.40
2018-03-26T03:00:18.284Z,41.50
2018-03-26T03:00:50.043Z,41.50
2018-03-26T03:01:21.787Z,41.40
2018-03-26T03:01:53.529Z,41.40
2018-03-26T03:02:25.276Z,41.40
2018-03-26T03:02:57.017Z,41.40
2018-03-26T03:03:28.961Z,41.40
2018-03-26T03:04:00.718Z,41.30
2018-03-26T03:04:32.464Z,41.10
2018-03-26T03:05:04.220Z,41.00
2018-03-26T03:05:35.952Z,41.00
2018-03-26T03:06:07.715Z,41.20
2018-03-26T03:06:39.452Z,41.20
2018-03-26T03:07:11.180Z,41.20
2018-03-26T03:07:42.917Z,41.30
2018-03-26T03:08:14.657Z,41.30
2018-03-26T03:08:46.620Z,41.30
2018-03-26T03:09:18.381Z,41.20
2018-03-26T03:09:50.136Z,41.30
2018-03-26T03:10:21.864Z,41.40
2018-03-26T03:10:53.655Z,41.20
2018-03-26T03:11:26.142Z,41.30
2018-03-26T03:11:57.912Z,41.20
2018-03-26T03:12:29.650Z,41.30
2018-03-26T03:13:01.402Z,41.20
2018-03-26T03:13:33.144Z,41.30
2018-03-26T03:14:04.883Z,41.30
2018-03-26T03:14:36.633Z,41.30
2018-03-26T03:15:08.375Z,41.40
2018-03-26T03:15:40.116Z,41.20
2018-03-26T03:16:11.852Z,41.10
2018-03-26T03:16:43.599Z,41.20
2018-03-26T03:17:15.344Z,41.20
2018-03-26T03:17:47.080Z,41.30
2018-03-26T03:18:18.835Z,41.00
2018-03-26T03:18:50.580Z,41.00
2018-03-26T03:19:22.319Z,41.10
2018-03-26T03:19:54.072Z,41.20
2018-03-26T03:20:25.808Z,41.30
2018-03-26T03:20:57.559Z,41.20
2018-03-26T03:21:29.299Z,41.20
2018-03-26T03:22:01.038Z,41.20
2018-03-26T03:22:32.777Z,41.20
2018-03-26T03:23:04.512Z,41.20
2018-03-26T03:23:36.241Z,41.30
2018-03-26T03:24:07.983Z,41.20
2018-03-26T03:24:39.732Z,41.20
2018-03-26T03:25:11.487Z,41.30
2018-03-26T03:25:43.200Z,41.20
2018-03-26T03:26:15.935Z,41.00
2018-03-26T03:26:47.679Z,41.10
2018-03-26T03:27:19.442Z,41.00
2018-03-26T03:27:51.171Z,41.00
2018-03-26T03:28:22.923Z,41.00
2018-03-26T03:28:55.428Z,41.00
2018-03-26T03:29:27.159Z,41.00
2018-03-26T03:29:58.906Z,41.10
2018-03-26T03:30:31.419Z,41.20
2018-03-26T03:31:03.171Z,41.10
2018-03-26T03:31:34.909Z,41.20
2018-03-26T03:32:06.700Z,41.20
2018-03-26T03:32:38.626Z,41.10
2018-03-26T03:33:10.361Z,41.10
2018-03-26T03:33:42.103Z,41.10
2018-03-26T03:34:13.847Z,41.00
2018-03-26T03:34:45.602Z,41.00
2018-03-26T03:35:17.342Z,40.80
2018-03-26T03:35:49.076Z,40.90
2018-03-26T03:36:20.819Z,40.90
2018-03-26T03:36:52.577Z,40.90
2018-03-26T03:37:24.361Z,41.10
2018-03-26T03:37:56.092Z,41.70
2018-03-26T03:38:27.839Z,41.10
2018-03-26T03:38:59.612Z,41.20
2018-03-26T03:39:31.531Z,41.20
2018-03-26T03:40:04.042Z,41.20
2018-03-26T03:40:35.781Z,41.20
2018-03-26T03:41:07.808Z,41.10
2018-03-26T03:41:39.560Z,41.20
2018-03-26T03:42:11.313Z,41.20
2018-03-26T03:42:43.060Z,41.20
2018-03-26T03:43:14.821Z,41.10
2018-03-26T03:43:46.547Z,41.10
2018-03-26T03:44:18.293Z,41.10
2018-03-26T03:44:50.035Z,41.10
2018-03-26T03:45:21.771Z,41.00
2018-03-26T03:45:53.519Z,41.10
2018-03-26T03:46:25.271Z,41.00
2018-03-26T03:46:57.000Z,41.00
2018-03-26T03:47:28.738Z,41.00
2018-03-26T03:48:00.485Z,40.80
2018-03-26T03:48:32.216Z,41.00
2018-03-26T03:49:03.955Z,40.90
2018-03-26T03:49:35.702Z,41.00
2018-03-26T03:50:08.204Z,40.90
2018-03-26T03:50:39.940Z,40.90
2018-03-26T03:51:11.705Z,41.00
2018-03-26T03:51:43.458Z,41.20
2018-03-26T03:52:15.209Z,41.10
2018-03-26T03:52:48.546Z,41.00
2018-03-26T03:53:20.309Z,41.00
2018-03-26T03:53:52.050Z,40.90
2018-03-26T03:54:23.791Z,40.80
2018-03-26T03:54:55.550Z,41.00
2018-03-26T03:55:27.486Z,41.10
2018-03-26T03:55:59.253Z,41.00
2018-03-26T03:56:30.974Z,40.90
2018-03-26T03:57:02.717Z,41.00
2018-03-26T03:57:34.467Z,41.10
2018-03-26T03:58:06.214Z,41.00
2018-03-26T03:58:37.966Z,41.20
2018-03-26T03:59:09.715Z,41.20
2018-03-26T03:59:41.479Z,41.10
2018-03-26T04:00:13.287Z,41.20
2018-03-26T04:00:45.181Z,41.20
2018-03-26T04:01:17.698Z,40.80
2018-03-26T04:01:49.639Z,40.80
2018-03-26T04:02:21.424Z,41.30
2018-03-26T04:02:53.935Z,41.10
2018-03-26T04:03:25.677Z,41.00
2018-03-26T04:03:57.418Z,41.00
2018-03-26T04:04:29.190Z,40.90
2018-03-26T04:05:00.947Z,41.00
2018-03-26T04:05:32.715Z,41.20
2018-03-26T04:06:04.693Z,41.40
2018-03-26T04:06:36.492Z,41.20
2018-03-26T04:07:08.237Z,41.20
2018-03-26T04:07:39.979Z,41.40
2018-03-26T04:08:11.718Z,41.20
2018-03-26T04:08:43.462Z,41.10
2018-03-26T04:09:15.493Z,41.00
2018-03-26T04:09:47.442Z,41.10
2018-03-26T04:10:19.183Z,41.10
2018-03-26T04:10:50.926Z,41.00
2018-03-26T04:11:22.668Z,41.00
2018-03-26T04:11:54.428Z,40.80
2018-03-26T04:12:26.176Z,40.90
2018-03-26T04:12:57.919Z,41.00
2018-03-26T04:13:29.666Z,40.90
2018-03-26T04:14:01.424Z,40.70
2018-03-26T04:14:33.161Z,40.80
2018-03-26T04:15:04.907Z,40.60
2018-03-26T04:15:36.654Z,40.80
2018-03-26T04:16:08.395Z,40.70
2018-03-26T04:16:40.124Z,40.60
2018-03-26T04:17:11.891Z,40.60
2018-03-26T04:17:43.631Z,40.50
2018-03-26T04:18:15.376Z,40.60
2018-03-26T04:18:47.123Z,40.70
2018-03-26T04:19:18.863Z,40.70
2018-03-26T04:19:50.650Z,40.50
2018-03-26T04:20:22.535Z,40.70
2018-03-26T04:20:54.296Z,40.60
2018-03-26T04:21:26.034Z,40.50
2018-03-26T04:21:57.790Z,40.60
2018-03-26T04:22:29.536Z,40.50
2018-03-26T04:23:01.268Z,40.50
2018-03-26T04:23:33.042Z,40.50
2018-03-26T04:24:06.279Z,40.50
2018-03-26T04:24:38.044Z,40.50
2018-03-26T04:25:09.774Z,40.40
2018-03-26T04:25:41.511Z,40.60
2018-03-26T04:26:13.260Z,40.40
2018-03-26T04:26:44.988Z,40.50
2018-03-26T04:27:16.730Z,40.70
2018-03-26T04:27:48.497Z,40.80
2018-03-26T04:28:20.239Z,40.80
2018-03-26T04:28:51.977Z,40.80
2018-03-26T04:29:23.728Z,40.70
2018-03-26T04:29:55.482Z,40.80
2018-03-26T04:30:27.214Z,40.80
2018-03-26T04:30:58.966Z,40.80
2018-03-26T04:31:30.699Z,40.80
2018-03-26T04:32:02.511Z,40.80
2018-03-26T04:32:34.391Z,40.80
2018-03-26T04:33:06.135Z,40.80
2018-03-26T04:33:37.888Z,40.80
2018-03-26T04:34:09.649Z,40.80
2018-03-26T04:34:41.388Z,40.80
2018-03-26T04:35:13.124Z,40.70
2018-03-26T04:35:44.902Z,40.60
2018-03-26T04:36:16.631Z,40.50
2018-03-26T04:36:48.372Z,40.70
2018-03-26T04:37:20.129Z,40.60
2018-03-26T04:37:51.847Z,40.70
2018-03-26T04:38:23.580Z,41.00
2018-03-26T04:38:55.331Z,40.90
2018-03-26T04:39:27.052Z,40.90
2018-03-26T04:39:58.801Z,41.70
2018-03-26T04:40:30.543Z,42.30
2018-03-26T04:41:02.288Z,43.20
2018-03-26T04:41:34.029Z,44.40
2018-03-26T04:42:05.774Z,46.30
2018-03-26T04:42:37.509Z,47.20
2018-03-26T04:43:09.253Z,46.60
2018-03-26T04:43:41.754Z,45.00
2018-03-26T04:44:13.537Z,44.90
2018-03-26T04:44:45.531Z,44.10
2018-03-26T04:45:18.022Z,43.50
2018-03-26T04:45:49.963Z,43.50
2018-03-26T04:46:21.708Z,44.20
2018-03-26T04:46:53.449Z,44.20
2018-03-26T04:47:25.175Z,45.60
2018-03-26T04:47:56.940Z,45.30
2018-03-26T04:48:28.670Z,45.40
2018-03-26T04:49:00.418Z,45.40
2018-03-26T04:49:32.368Z,45.10
2018-03-26T04:50:04.125Z,45.80
2018-03-26T04:50:36.050Z,46.40
2018-03-26T04:51:07.794Z,46.90
2018-03-26T04:51:39.545Z,46.90
2018-03-26T04:52:11.285Z,44.80
2018-03-26T04:52:43.048Z,46.30
2018-03-26T04:53:14.984Z,46.70
2018-03-26T04:53:46.739Z,47.10
2018-03-26T04:54:18.484Z,47.00
2018-03-26T04:54:50.272Z,46.80
2018-03-26T04:55:22.792Z,47.10
2018-03-26T04:55:54.587Z,47.00
2018-03-26T04:56:26.520Z,47.20
2018-03-26T04:56:58.271Z,46.70
2018-03-26T04:57:30.827Z,46.20
2018-03-26T04:58:02.567Z,46.20
2018-03-26T04:58:34.311Z,47.20
2018-03-26T04:59:06.044Z,47.00
2018-03-26T04:59:37.785Z,46.70
2018-03-26T05:00:09.543Z,46.00
2018-03-26T05:00:41.288Z,46.70
2018-03-26T05:01:13.045Z,46.70
2018-03-26T05:01:45.561Z,47.60
2018-03-26T05:02:17.304Z,47.10
2018-03-26T05:02:49.257Z,46.70
2018-03-26T05:03:20.998Z,46.80
2018-03-26T05:03:52.747Z,46.90
2018-03-26T05:04:24.523Z,45.80
2018-03-26T05:04:56.260Z,46.50
2018-03-26T05:05:28.009Z,46.60
2018-03-26T05:05:59.754Z,46.10
2018-03-26T05:06:31.528Z,46.00
2018-03-26T05:07:04.044Z,45.50
2018-03-26T05:07:35.788Z,45.50
2018-03-26T05:08:07.712Z,45.30
2018-03-26T05:08:40.190Z,45.80
2018-03-26T05:09:11.930Z,45.70
2018-03-26T05:09:43.683Z,45.50
2018-03-26T05:10:15.424Z,45.50
2018-03-26T05:10:47.165Z,45.50
2018-03-26T05:11:18.899Z,45.70
2018-03-26T05:11:50.664Z,44.80
2018-03-26T05:12:22.411Z,45.30
2018-03-26T05:12:54.175Z,45.30
2018-03-26T05:13:25.918Z,45.30
2018-03-26T05:13:57.653Z,45.50
2018-03-26T05:14:29.375Z,45.80
2018-03-26T05:15:01.149Z,46.00
2018-03-26T05:15:32.895Z,45.40
2018-03-26T05:16:04.852Z,45.40
2018-03-26T05:16:36.588Z,45.20
2018-03-26T05:17:08.337Z,45.90
2018-03-26T05:17:40.084Z,45.50
2018-03-26T05:18:12.647Z,45.20
2018-03-26T05:18:44.398Z,45.20
2018-03-26T05:19:16.140Z,45.00
2018-03-26T05:19:47.889Z,45.20
2018-03-26T05:20:20.418Z,45.70
2018-03-26T05:20:52.163Z,45.20
2018-03-26T05:21:23.895Z,45.20
2018-03-26T05:21:55.640Z,45.20
2018-03-26T05:22:27.403Z,44.90
2018-03-26T05:22:59.158Z,45.00
2018-03-26T05:23:30.896Z,44.80
2018-03-26T05:24:02.654Z,44.90
2018-03-26T05:24:34.408Z,44.70
2018-03-26T05:25:06.919Z,45.00
2018-03-26T05:25:38.673Z,45.00
2018-03-26T05:26:10.433Z,44.70
2018-03-26T05:26:42.168Z,45.00
2018-03-26T05:27:13.912Z,44.90
2018-03-26T05:27:45.656Z,44.80
2018-03-26T05:28:17.401Z,45.00
2018-03-26T05:28:49.148Z,44.80
2018-03-26T05:29:20.910Z,44.70
2018-03-26T05:29:52.630Z,44.70
2018-03-26T05:30:24.382Z,44.50
2018-03-26T05:30:56.323Z,44.60
2018-03-26T05:31:28.240Z,44.00
2018-03-26T05:31:59.981Z,44.40
2018-03-26T05:32:31.714Z,44.40
2018-03-26T05:33:04.236Z,44.20
2018-03-26T05:33:35.982Z,44.20
2018-03-26T05:34:07.722Z,44.00
2018-03-26T05:34:39.460Z,43.70
2018-03-26T05:35:11.227Z,44.30
2018-03-26T05:35:42.996Z,44.10
2018-03-26T05:36:15.507Z,44.20
2018-03-26T05:36:47.251Z,44.20
2018-03-26T05:37:19.000Z,43.80
2018-03-26T05:37:50.739Z,44.30
2018-03-26T05:38:22.484Z,44.10
2018-03-26T05:38:54.236Z,44.20
2018-03-26T05:39:25.997Z,44.30
2018-03-26T05:39:57.731Z,44.30
2018-03-26T05:40:29.477Z,44.00
2018-03-26T05:41:01.424Z,44.20
2018-03-26T05:41:33.172Z,44.30
2018-03-26T05:42:04.919Z,44.20
2018-03-26T05:42:36.652Z,44.40
2018-03-26T05:43:08.392Z,44.20
2018-03-26T05:43:40.149Z,44.10
2018-03-26T05:44:11.880Z,44.00
2018-03-26T05:44:43.612Z,44.00
2018-03-26T05:45:15.352Z,43.90
2018-03-26T05:45:47.112Z,44.00
2018-03-26T05:46:18.856Z,44.10
2018-03-26T05:46:50.611Z,44.00
2018-03-26T05:47:22.349Z,44.10
2018-03-26T05:47:54.091Z,43.80
2018-03-26T05:48:25.840Z,44.00
2018-03-26T05:48:57.586Z,43.50
2018-03-26T05:49:29.319Z,43.80
2018-03-26T05:50:01.064Z,43.40
2018-03-26T05:50:32.832Z,43.70
2018-03-26T05:51:04.575Z,43.50
2018-03-26T05:51:36.308Z,43.40
2018-03-26T05:52:08.067Z,43.30
2018-03-26T05:52:39.826Z,43.30
2018-03-26T05:53:11.565Z,43.60
2018-03-26T05:53:44.819Z,43.30
2018-03-26T05:54:16.544Z,43.30
2018-03-26T05:54:48.304Z,43.30
2018-03-26T05:55:20.050Z,43.20
2018-03-26T05:55:51.796Z,43.50
2018-03-26T05:56:23.572Z,43.60
2018-03-26T05:56:55.358Z,43.70
2018-03-26T05:57:27.110Z,43.40
2018-03-26T05:57:58.849Z,43.50
2018-03-26T05:58:30.589Z,43.40
2018-03-26T05:59:02.340Z,43.40
2018-03-26T05:59:34.089Z,43.00
2018-03-26T06:00:05.840Z,43.40
2018-03-26T06:00:37.627Z,43.10
2018-03-26T06:01:09.369Z,43.40
2018-03-26T06:01:41.115Z,43.20
2018-03-26T06:02:12.852Z,43.10
2018-03-26T06:02:44.592Z,43.10
2018-03-26T06:03:16.454Z,43.20
2018-03-26T06:03:48.203Z,43.30
2018-03-26T06:04:20.699Z,43.80
2018-03-26T06:04:52.641Z,43.50
2018-03-26T06:05:24.398Z,43.40
2018-03-26T06:05:56.138Z,43.20
2018-03-26T06:06:27.887Z,43.10
2018-03-26T06:06:59.641Z,43.30
2018-03-26T06:07:31.382Z,43.10
2018-03-26T06:08:03.105Z,43.20
2018-03-26T06:08:34.924Z,43.30
2018-03-26T06:09:07.442Z,43.30
2018-03-26T06:09:39.188Z,43.30
2018-03-26T06:10:10.940Z,43.30
2018-03-26T06:10:42.681Z,43.30
2018-03-26T06:11:14.433Z,43.20
2018-03-26T06:11:46.177Z,43.20
2018-03-26T06:12:17.919Z,43.10
2018-03-26T06:12:49.664Z,43.40
2018-03-26T06:13:21.417Z,43.40
2018-03-26T06:13:53.173Z,43.20
2018-03-26T06:14:24.912Z,43.30
2018-03-26T06:14:56.649Z,43.20
2018-03-26T06:15:28.444Z,43.00
2018-03-26T06:16:00.352Z,43.20
2018-03-26T06:16:32.115Z,43.10
2018-03-26T06:17:04.664Z,43.10
2018-03-26T06:17:36.386Z,43.10
2018-03-26T06:18:08.322Z,43.00
2018-03-26T06:18:40.066Z,43.30
2018-03-26T06:19:12.065Z,43.20
2018-03-26T06:19:43.824Z,43.30
2018-03-26T06:20:16.338Z,42.90
2018-03-26T06:20:48.152Z,42.90
2018-03-26T06:21:19.918Z,43.20
2018-03-26T06:21:51.683Z,43.10
2018-03-26T06:22:23.439Z,43.00
2018-03-26T06:22:55.176Z,42.80
2018-03-26T06:23:26.941Z,42.80
2018-03-26T06:23:58.720Z,43.00
2018-03-26T06:24:30.445Z,43.00
2018-03-26T06:25:02.966Z,42.90
2018-03-26T06:25:34.704Z,42.90
2018-03-26T06:26:06.485Z,42.90
2018-03-26T06:26:39.024Z,42.90
2018-03-26T06:27:10.778Z,42.90
2018-03-26T06:27:42.545Z,43.00
2018-03-26T06:28:14.480Z,43.10
2018-03-26T06:28:46.241Z,42.90
2018-03-26T06:29:18.776Z,43.00
2018-03-26T06:29:50.533Z,43.00
2018-03-26T06:30:22.303Z,42.80
2018-03-26T06:30:54.822Z,42.90
2018-03-26T06:31:26.577Z,42.90
2018-03-26T06:31:58.350Z,42.70
2018-03-26T06:32:30.862Z,42.90
2018-03-26T06:33:02.641Z,42.80
2018-03-26T06:33:34.422Z,42.80
2018-03-26T06:34:06.154Z,43.40
2018-03-26T06:34:37.887Z,43.00
2018-03-26T06:35:09.668Z,42.90
2018-03-26T06:35:41.385Z,42.90
2018-03-26T06:36:13.123Z,42.90
2018-03-26T06:36:45.639Z,42.90
2018-03-26T06:37:17.389Z,42.90
2018-03-26T06:37:49.122Z,42.90
2018-03-26T06:38:20.923Z,42.80
2018-03-26T06:38:52.685Z,42.80
2018-03-26T06:39:24.464Z,42.90
2018-03-26T06:39:56.221Z,42.80
2018-03-26T06:40:27.955Z,42.80
2018-03-26T06:40:59.704Z,42.60
2018-03-26T06:41:31.429Z,42.70
2018-03-26T06:42:03.180Z,42.70
2018-03-26T06:42:34.925Z,42.80
2018-03-26T06:43:06.672Z,42.60
2018-03-26T06:43:38.420Z,42.60
2018-03-26T06:44:10.229Z,42.60
2018-03-26T06:44:42.110Z,42.60
2018-03-26T06:45:13.848Z,42.60
2018-03-26T06:45:45.590Z,42.80
2018-03-26T06:46:17.332Z,42.70
2018-03-26T06:46:49.069Z,42.80
2018-03-26T06:47:20.801Z,42.80
2018-03-26T06:47:52.535Z,42.60
2018-03-26T06:48:24.264Z,42.50
2018-03-26T06:48:56.788Z,42.50
2018-03-26T06:49:28.532Z,42.50
2018-03-26T06:50:00.273Z,42.50